createdAt,value
2023-04-27T04:42:40.582Z,19.87
2023-04-27T04:45:43.865Z,18.27
2023-04-27T04:48:47.115Z,15.95
2023-04-27T04:51:49.765Z,18.48
2023-04-27T04:54:53.312Z,28.15
2023-04-27T04:57:55.910Z,55.17
2023-04-27T05:01:00.071Z,29.63
2023-04-27T05:04:02.802Z,23.20
2023-04-27T05:07:06.827Z,18.12
2023-04-27T05:10:09.583Z,11.23
2023-04-27T05:13:12.166Z,9.10
2023-04-27T05:19:18.641Z,5.95
2023-04-27T05:22:21.221Z,5.53
2023-04-27T05:25:23.774Z,8.05
2023-04-27T05:28:26.467Z,7.65
2023-04-27T05:31:29.157Z,8.40
2023-04-27T05:34:31.729Z,5.93
2023-04-27T05:37:34.281Z,4.93
2023-04-27T05:40:37.249Z,4.57
2023-04-27T05:43:39.943Z,12.10
2023-04-27T05:46:42.776Z,6.53
2023-04-27T05:49:45.290Z,6.00
2023-04-27T05:52:47.805Z,10.88
2023-04-27T05:55:50.383Z,7.32
2023-04-27T05:58:53.145Z,5.62
2023-04-27T06:01:55.976Z,6.57
2023-04-27T06:04:58.619Z,9.35
2023-04-27T06:08:01.410Z,17.80
2023-04-27T06:11:04.084Z,6.03
2023-04-27T06:14:06.565Z,6.30
2023-04-27T06:17:20.897Z,10.70
2023-04-27T06:20:23.754Z,6.85
2023-04-27T06:23:26.436Z,4.78
2023-04-27T06:26:28.950Z,4.43
2023-04-27T06:29:31.513Z,5.90
2023-04-27T06:32:34.098Z,3.58
2023-04-27T06:35:36.698Z,9.65
2023-04-27T06:38:39.272Z,5.72
2023-04-27T06:41:41.886Z,7.03
2023-04-27T06:44:44.506Z,8.45
2023-04-27T06:47:47.107Z,9.35
2023-04-27T06:50:49.777Z,9.23
2023-04-27T06:53:53.230Z,6.60
2023-04-27T06:56:55.947Z,9.73
2023-04-27T06:59:58.776Z,8.95
2023-04-27T07:03:01.434Z,4.78
2023-04-27T07:06:04.198Z,4.12
2023-04-27T07:09:16.275Z,3.65
2023-04-27T07:12:29.523Z,10.98
2023-04-27T07:15:32.252Z,5.55
2023-04-27T07:18:34.813Z,4.62
2023-04-27T07:21:37.396Z,10.02
2023-04-27T07:24:40.226Z,5.87
2023-04-27T07:27:43.041Z,3.10
2023-04-27T07:30:46.023Z,3.65
2023-04-27T07:33:48.604Z,5.75
2023-04-27T07:36:54.630Z,6.45
2023-04-27T07:39:59.618Z,6.05
2023-04-27T07:43:03.132Z,6.15
2023-04-27T07:46:05.870Z,5.60
2023-04-27T07:49:08.525Z,9.90
2023-04-27T07:52:11.334Z,4.53
2023-04-27T07:55:13.884Z,4.30
2023-04-27T07:58:16.538Z,7.25
2023-04-27T08:01:21.324Z,5.78
2023-04-27T08:04:24.385Z,5.90
2023-04-27T08:07:28.075Z,7.93
2023-04-27T08:10:31.492Z,7.10
2023-04-27T08:13:34.951Z,5.18
2023-04-27T08:16:37.603Z,5.15
2023-04-27T08:19:41.219Z,5.20
2023-04-27T08:22:43.874Z,4.72
2023-04-27T08:25:46.552Z,5.22
2023-04-27T08:28:49.490Z,3.55
2023-04-27T08:31:52.955Z,4.78
2023-04-27T08:34:59.523Z,3.90
2023-04-27T08:38:02.137Z,5.55
2023-04-27T08:41:17.953Z,2.72
2023-04-27T08:44:23.221Z,4.45
2023-04-27T08:47:35.035Z,3.53
2023-04-27T08:50:51.979Z,9.23
2023-04-27T08:53:56.469Z,3.65
2023-04-27T08:56:59.049Z,3.37
2023-04-27T09:00:02.334Z,2.12
2023-04-27T09:03:05.184Z,6.37
2023-04-27T09:06:08.407Z,4.10
2023-04-27T09:09:11.646Z,5.62
2023-04-27T09:12:23.914Z,2.95
2023-04-27T09:15:26.775Z,3.45
2023-04-27T09:18:29.435Z,8.43
2023-04-27T09:21:32.843Z,5.07
2023-04-27T09:24:35.900Z,2.78
2023-04-27T09:27:39.041Z,5.07
2023-04-27T09:30:48.829Z,4.87
2023-04-27T09:33:55.175Z,8.73
2023-04-27T09:36:57.907Z,4.20
2023-04-27T09:40:02.120Z,1.85
2023-04-27T09:43:04.785Z,11.68
2023-04-27T09:46:07.463Z,4.55
2023-04-27T09:49:10.117Z,3.35
2023-04-27T09:52:12.693Z,2.95
2023-04-27T09:55:17.732Z,4.93
2023-04-27T09:58:29.852Z,5.65
2023-04-27T10:01:37.484Z,4.10
2023-04-27T10:04:49.488Z,3.17
2023-04-27T10:07:52.903Z,4.07
2023-04-27T10:10:55.586Z,3.15
2023-04-27T10:13:58.219Z,1.92
2023-04-27T10:17:01.190Z,4.68
2023-04-27T10:20:09.054Z,3.37
2023-04-27T10:23:11.834Z,3.70
2023-04-27T10:26:21.930Z,7.97
2023-04-27T10:29:24.494Z,5.22
2023-04-27T10:32:27.097Z,3.00
2023-04-27T10:35:38.984Z,5.65
2023-04-27T10:38:42.103Z,3.22
2023-04-27T10:41:51.855Z,2.40
2023-04-27T10:44:57.010Z,3.03
2023-04-27T10:48:01.313Z,3.20
2023-04-27T10:51:04.845Z,5.60
2023-04-27T10:54:09.062Z,12.05
2023-04-27T10:57:12.754Z,2.87
2023-04-27T11:00:19.213Z,5.32
2023-04-27T11:03:24.502Z,5.93
2023-04-27T11:06:28.476Z,3.72
2023-04-27T11:09:31.321Z,3.87
2023-04-27T11:12:34.072Z,4.20
2023-04-27T11:15:49.634Z,7.20
2023-04-27T11:22:03.412Z,5.07
2023-04-27T11:25:06.628Z,4.62
2023-04-27T11:28:18.527Z,8.45
2023-04-27T11:31:21.185Z,3.50
2023-04-27T11:34:24.780Z,3.28
2023-04-27T11:37:27.872Z,4.37
2023-04-27T11:40:31.168Z,3.17
2023-04-27T11:43:34.274Z,2.83
2023-04-27T11:46:37.167Z,4.57
2023-04-27T11:49:40.194Z,8.63
2023-04-27T11:52:42.846Z,6.57
2023-04-27T11:55:46.027Z,5.00
2023-04-27T11:58:48.549Z,3.03
2023-04-27T12:01:51.900Z,6.82
2023-04-27T12:04:54.872Z,4.87
2023-04-27T12:07:58.349Z,2.10
2023-04-27T12:11:00.907Z,6.75
2023-04-27T12:14:03.844Z,2.85
2023-04-27T12:17:07.182Z,4.03
2023-04-27T12:20:10.853Z,4.30
2023-04-27T12:23:13.493Z,3.78
2023-04-27T12:26:17.256Z,4.32
2023-04-27T12:29:20.655Z,3.97
2023-04-27T12:32:23.772Z,2.40
2023-04-27T12:35:26.477Z,10.77
2023-04-27T12:38:29.371Z,3.45
2023-04-27T12:41:32.004Z,6.62
2023-04-27T12:44:34.646Z,5.07
2023-04-27T12:50:42.889Z,5.30
2023-04-27T12:53:45.501Z,4.03
2023-04-27T12:56:48.028Z,4.57
2023-04-27T12:59:51.256Z,3.92
2023-04-27T13:02:53.955Z,3.08
2023-04-27T13:05:56.741Z,4.82
2023-04-27T13:08:59.909Z,2.42
2023-04-27T13:12:02.510Z,4.85
2023-04-27T13:15:05.575Z,5.30
2023-04-27T13:18:08.291Z,3.62
2023-04-27T13:21:10.948Z,1.92
2023-04-27T13:24:13.728Z,3.30
2023-04-27T13:27:17.323Z,3.37
2023-04-27T13:30:20.290Z,6.15
2023-04-27T13:33:23.790Z,2.53
2023-04-27T13:36:27.110Z,9.55
2023-04-27T13:39:29.640Z,3.05
2023-04-27T13:42:32.297Z,4.60
2023-04-27T13:45:34.968Z,9.82
2023-04-27T13:48:37.546Z,3.37
2023-04-27T13:51:40.759Z,4.18
2023-04-27T13:54:43.263Z,6.75
2023-04-27T13:57:45.974Z,5.62
2023-04-27T14:00:48.717Z,3.70
2023-04-27T14:03:51.413Z,3.70
2023-04-27T14:06:54.026Z,6.78
2023-04-27T14:09:56.555Z,8.13
2023-04-27T14:12:59.135Z,4.43
2023-04-27T14:16:01.700Z,3.60
2023-04-27T14:19:04.255Z,6.57
2023-04-27T14:22:08.268Z,4.32
2023-04-27T14:25:10.791Z,3.03
2023-04-27T14:28:14.837Z,3.35
2023-04-27T14:31:18.079Z,4.62
2023-04-27T14:34:21.696Z,2.97
2023-04-27T14:37:24.327Z,6.87
2023-04-27T14:40:26.918Z,11.52
2023-04-27T14:43:29.513Z,6.22
2023-04-27T14:46:32.083Z,6.93
2023-04-27T14:49:34.711Z,4.12
2023-04-27T14:52:37.374Z,3.47
2023-04-27T14:55:41.237Z,5.43
2023-04-27T14:58:43.850Z,1.95
2023-04-27T15:01:46.410Z,3.67
2023-04-27T15:04:49.008Z,4.93
2023-04-27T15:07:51.584Z,5.18
2023-04-27T15:10:57.776Z,9.95
2023-04-27T15:14:00.367Z,4.35
2023-04-27T15:17:03.149Z,10.60
2023-04-27T15:20:06.563Z,4.65
2023-04-27T15:23:09.100Z,6.90
2023-04-27T15:26:11.699Z,7.57
2023-04-27T15:29:14.469Z,3.00
2023-04-27T15:32:17.262Z,2.25
2023-04-27T15:35:19.880Z,3.42
